sensor_id;sensor_type;location;lat;lon;timestamp;pressure;altitude;pressure_sealevel;temperature;humidity
20955;BME280;10636;19.390;-99.256;2023-04-06T00:02:03;77416.69;;;28.35;17.17
20955;BME280;10636;19.390;-99.256;2023-04-06T00:04:34;77423.44;;;28.36;17.77
20955;BME280;10636;19.390;-99.256;2023-04-06T00:07:05;77430.84;;;28.35;18.43
20955;BME280;10636;19.390;-99.256;2023-04-06T00:09:33;77426.09;;;28.34;18.11
20955;BME280;10636;19.390;-99.256;2023-04-06T00:12:02;77437.56;;;28.34;17.83
20955;BME280;10636;19.390;-99.256;2023-04-06T00:14:31;77442.28;;;28.34;18.24
20955;BME280;10636;19.390;-99.256;2023-04-06T00:16:59;77435.53;;;28.33;18.53
20955;BME280;10636;19.390;-99.256;2023-04-06T00:19:33;77440.22;;;28.32;18.17
20955;BME280;10636;19.390;-99.256;2023-04-06T00:22:05;77442.91;;;28.32;18.78
20955;BME280;10636;19.390;-99.256;2023-04-06T00:24:34;77444.94;;;28.32;18.86
20955;BME280;10636;19.390;-99.256;2023-04-06T00:27:03;77446.91;;;28.31;18.87
20955;BME280;10636;19.390;-99.256;2023-04-06T00:29:34;77451.00;;;28.32;18.79
20955;BME280;10636;19.390;-99.256;2023-04-06T00:32:05;77445.56;;;28.30;18.67
20955;BME280;10636;19.390;-99.256;2023-04-06T00:34:33;77448.94;;;28.31;18.71
20955;BME280;10636;19.390;-99.256;2023-04-06T00:37:08;77448.22;;;28.28;18.70
20955;BME280;10636;19.390;-99.256;2023-04-06T00:39:36;77457.66;;;28.27;18.39
20955;BME280;10636;19.390;-99.256;2023-04-06T00:42:11;77457.66;;;28.27;18.29
20955;BME280;10636;19.390;-99.256;2023-04-06T00:44:42;77458.28;;;28.26;18.34
20955;BME280;10636;19.390;-99.256;2023-04-06T00:47:11;77457.59;;;28.25;18.48
20955;BME280;10636;19.390;-99.256;2023-04-06T00:49:43;77472.44;;;28.26;18.72
20955;BME280;10636;19.390;-99.256;2023-04-06T00:52:13;77467.03;;;28.26;18.92
20955;BME280;10636;19.390;-99.256;2023-04-06T00:54:41;77472.44;;;28.26;18.65
20955;BME280;10636;19.390;-99.256;2023-04-06T00:57:10;77471.06;;;28.25;18.53
20955;BME280;10636;19.390;-99.256;2023-04-06T00:59:42;77471.72;;;28.24;18.14
20955;BME280;10636;19.390;-99.256;2023-04-06T01:02:13;77471.69;;;28.22;18.20
20955;BME280;10636;19.390;-99.256;2023-04-06T01:04:45;77478.44;;;28.23;18.76
20955;BME280;10636;19.390;-99.256;2023-04-06T01:07:15;77492.59;;;28.21;18.50
20955;BME280;10636;19.390;-99.256;2023-04-06T01:09:44;77492.59;;;28.21;18.56
20955;BME280;10636;19.390;-99.256;2023-04-06T01:12:12;77497.97;;;28.21;18.96
20955;BME280;10636;19.390;-99.256;2023-04-06T01:14:41;77507.38;;;28.20;18.53
20955;BME280;10636;19.390;-99.256;2023-04-06T01:17:09;77500.63;;;28.19;18.77
20955;BME280;10636;19.390;-99.256;2023-04-06T01:19:38;77516.78;;;28.19;18.43
20955;BME280;10636;19.390;-99.256;2023-04-06T01:22:07;77512.72;;;28.18;18.56
20955;BME280;10636;19.390;-99.256;2023-04-06T01:24:37;77520.09;;;28.15;18.59
20955;BME280;10636;19.390;-99.256;2023-04-06T01:27:06;77492.66;;;27.93;18.64
20955;BME280;10636;19.390;-99.256;2023-04-06T01:29:34;77513.97;;;28.13;18.48
20955;BME280;10636;19.390;-99.256;2023-04-06T01:32:03;77528.09;;;28.11;18.20
20955;BME280;10636;19.390;-99.256;2023-04-06T01:34:32;77526.03;;;28.10;18.35
20955;BME280;10636;19.390;-99.256;2023-04-06T01:37:00;77527.44;;;28.11;18.07
20955;BME280;10636;19.390;-99.256;2023-04-06T01:39:30;77535.44;;;28.09;17.98
20955;BME280;10636;19.390;-99.256;2023-04-06T01:42:01;77531.91;;;28.00;17.98
20955;BME280;10636;19.390;-99.256;2023-04-06T01:44:29;77555.56;;;28.04;18.29
20955;BME280;10636;19.390;-99.256;2023-04-06T01:46:58;77552.84;;;28.02;17.91
20955;BME280;10636;19.390;-99.256;2023-04-06T01:49:26;77568.94;;;28.00;18.08
20955;BME280;10636;19.390;-99.256;2023-04-06T01:51:55;77583.72;;;27.97;17.53
20955;BME280;10636;19.390;-99.256;2023-04-06T01:54:23;77578.97;;;27.95;17.44
20955;BME280;10636;19.390;-99.256;2023-04-06T01:56:52;77581.66;;;27.95;18.15
20955;BME280;10636;19.390;-99.256;2023-04-06T01:59:22;77593.72;;;27.92;17.49
20955;BME280;10636;19.390;-99.256;2023-04-06T02:01:50;77605.22;;;27.95;17.57
20955;BME280;10636;19.390;-99.256;2023-04-06T02:04:24;77605.88;;;27.93;17.87
20955;BME280;10636;19.390;-99.256;2023-04-06T02:06:53;77603.06;;;27.89;17.66
20955;BME280;10636;19.390;-99.256;2023-04-06T02:09:27;77625.38;;;27.92;17.84
20955;BME280;10636;19.390;-99.256;2023-04-06T02:11:55;77625.38;;;27.92;17.72
20955;BME280;10636;19.390;-99.256;2023-04-06T02:14:27;77627.97;;;27.87;17.97
20955;BME280;10636;19.390;-99.256;2023-04-06T02:16:57;77636.75;;;27.88;18.17
20955;BME280;10636;19.390;-99.256;2023-04-06T02:19:25;77642.78;;;27.86;18.17
20955;BME280;10636;19.390;-99.256;2023-04-06T02:21:57;77647.41;;;27.84;18.66
20955;BME280;10636;19.390;-99.256;2023-04-06T02:24:25;77656.25;;;27.86;18.68
20955;BME280;10636;19.390;-99.256;2023-04-06T02:26:54;77660.28;;;27.85;18.48
20955;BME280;10636;19.390;-99.256;2023-04-06T02:29:23;77628.00;;;27.61;19.22
20955;BME280;10636;19.390;-99.256;2023-04-06T02:31:53;77665.66;;;27.85;18.88
20955;BME280;10636;19.390;-99.256;2023-04-06T02:34:22;77668.25;;;27.81;18.98
20955;BME280;10636;19.390;-99.256;2023-04-06T02:36:50;77669.63;;;27.82;19.10
20955;BME280;10636;19.390;-99.256;2023-04-06T02:39:19;77666.25;;;27.82;19.16
20955;BME280;10636;19.390;-99.256;2023-04-06T02:41:48;77675.66;;;27.81;19.42
20955;BME280;10636;19.390;-99.256;2023-04-06T02:44:16;77685.75;;;27.80;19.86
20955;BME280;10636;19.390;-99.256;2023-04-06T02:46:47;77688.38;;;27.78;20.18
20955;BME280;10636;19.390;-99.256;2023-04-06T02:49:20;77687.75;;;27.80;20.27
20955;BME280;10636;19.390;-99.256;2023-04-06T02:51:48;77703.94;;;27.80;20.53
20955;BME280;10636;19.390;-99.256;2023-04-06T02:54:17;77710.66;;;27.79;20.75
20955;BME280;10636;19.390;-99.256;2023-04-06T02:56:46;77711.34;;;27.79;21.57
20955;BME280;10636;19.390;-99.256;2023-04-06T02:59:21;77712.69;;;27.80;22.19
20955;BME280;10636;19.390;-99.256;2023-04-06T03:01:49;77726.16;;;27.80;22.09
20955;BME280;10636;19.390;-99.256;2023-04-06T03:04:22;77726.16;;;27.80;23.60
20955;BME280;10636;19.390;-99.256;2023-04-06T03:06:54;77726.72;;;27.75;23.95
20955;BME280;10636;19.390;-99.256;2023-04-06T03:09:25;77734.19;;;27.78;24.13
20955;BME280;10636;19.390;-99.256;2023-04-06T03:11:56;77738.97;;;27.80;24.03
20955;BME280;10636;19.390;-99.256;2023-04-06T03:14:25;77742.28;;;27.78;24.47
20955;BME280;10636;19.390;-99.256;2023-04-06T03:16:53;77738.22;;;27.77;24.31
20955;BME280;10636;19.390;-99.256;2023-04-06T03:19:24;77755.69;;;27.76;23.96
20955;BME280;10636;19.390;-99.256;2023-04-06T03:21:53;77750.88;;;27.73;24.29
20955;BME280;10636;19.390;-99.256;2023-04-06T03:24:21;77755.66;;;27.74;24.07
20955;BME280;10636;19.390;-99.256;2023-04-06T03:26:53;77750.88;;;27.73;24.50
20955;BME280;10636;19.390;-99.256;2023-04-06T03:29:21;77756.91;;;27.71;24.75
20955;BME280;10636;19.390;-99.256;2023-04-06T03:31:51;77758.84;;;27.69;24.50
20955;BME280;10636;19.390;-99.256;2023-04-06T03:34:19;77762.25;;;27.69;24.65
20955;BME280;10636;19.390;-99.256;2023-04-06T03:36:52;77764.88;;;27.67;24.93
20955;BME280;10636;19.390;-99.256;2023-04-06T03:39:20;77772.91;;;27.65;24.91
20955;BME280;10636;19.390;-99.256;2023-04-06T03:41:49;77768.78;;;27.62;25.18
20955;BME280;10636;19.390;-99.256;2023-04-06T03:44:17;77770.09;;;27.61;25.05
20955;BME280;10636;19.390;-99.256;2023-04-06T03:46:46;77764.72;;;27.61;25.18
20955;BME280;10636;19.390;-99.256;2023-04-06T03:49:14;77766.72;;;27.60;25.37
20955;BME280;10636;19.390;-99.256;2023-04-06T03:51:43;77771.41;;;27.60;25.42
20955;BME280;10636;19.390;-99.256;2023-04-06T03:54:13;77779.47;;;27.58;25.67
20955;BME280;10636;19.390;-99.256;2023-04-06T03:56:42;77780.06;;;27.56;25.87
20955;BME280;10636;19.390;-99.256;2023-04-06T03:59:10;77788.13;;;27.54;26.23
20955;BME280;10636;19.390;-99.256;2023-04-06T04:01:39;77795.50;;;27.54;26.37
20955;BME280;10636;19.390;-99.256;2023-04-06T04:04:07;77791.50;;;27.55;26.98
20955;BME280;10636;19.390;-99.256;2023-04-06T04:06:36;77790.13;;;27.54;27.23
20955;BME280;10636;19.390;-99.256;2023-04-06T04:09:04;77778.03;;;27.55;26.83
20955;BME280;10636;19.390;-99.256;2023-04-06T04:11:34;77783.44;;;27.57;27.01
20955;BME280;10636;19.390;-99.256;2023-04-06T04:14:03;77784.09;;;27.55;26.91
20955;BME280;10636;19.390;-99.256;2023-04-06T04:16:31;77746.25;;;27.25;27.45
20955;BME280;10636;19.390;-99.256;2023-04-06T04:19:00;77798.25;;;27.56;27.66
20955;BME280;10636;19.390;-99.256;2023-04-06T04:21:29;77787.44;;;27.54;28.15
20955;BME280;10636;19.390;-99.256;2023-04-06T04:23:58;77804.19;;;27.52;28.38
20955;BME280;10636;19.390;-99.256;2023-04-06T04:26:29;77787.28;;;27.48;28.25
20955;BME280;10636;19.390;-99.256;2023-04-06T04:29:00;77802.78;;;27.49;28.12
20955;BME280;10636;19.390;-99.256;2023-04-06T04:31:28;77808.19;;;27.49;28.81
20955;BME280;10636;19.390;-99.256;2023-04-06T04:33:57;77800.72;;;27.48;28.57
20955;BME280;10636;19.390;-99.256;2023-04-06T04:36:26;77807.41;;;27.47;28.62
20955;BME280;10636;19.390;-99.256;2023-04-06T04:38:54;77810.75;;;27.45;28.97
20955;BME280;10636;19.390;-99.256;2023-04-06T04:41:23;77814.19;;;27.48;28.97
20955;BME280;10636;19.390;-99.256;2023-04-06T04:43:54;77811.44;;;27.46;29.20
20955;BME280;10636;19.390;-99.256;2023-04-06T04:46:27;77819.50;;;27.46;29.76
20955;BME280;10636;19.390;-99.256;2023-04-06T04:48:56;77818.16;;;27.45;29.56
20955;BME280;10636;19.390;-99.256;2023-04-06T04:51:26;77823.50;;;27.43;29.54
20955;BME280;10636;19.390;-99.256;2023-04-06T04:53:55;77816.09;;;27.43;29.57
20955;BME280;10636;19.390;-99.256;2023-04-06T04:56:25;77816.09;;;27.43;29.58
20955;BME280;10636;19.390;-99.256;2023-04-06T04:58:58;77826.22;;;27.45;29.89
20955;BME280;10636;19.390;-99.256;2023-04-06T05:01:28;77825.53;;;27.44;29.54
20955;BME280;10636;19.390;-99.256;2023-04-06T05:03:57;77819.50;;;27.46;29.81
20955;BME280;10636;19.390;-99.256;2023-04-06T05:06:26;77817.13;;;27.32;29.87
20955;BME280;10636;19.390;-99.256;2023-04-06T05:08:54;77796.69;;;27.23;29.70
20955;BME280;10636;19.390;-99.256;2023-04-06T05:11:23;77813.00;;;27.29;29.87
20955;BME280;10636;19.390;-99.256;2023-04-06T05:13:51;77841.69;;;27.44;29.45
20955;BME280;10636;19.390;-99.256;2023-04-06T05:16:20;77847.81;;;27.47;29.60
20955;BME280;10636;19.390;-99.256;2023-04-06T05:18:50;77830.59;;;27.32;29.42
20955;BME280;10636;19.390;-99.256;2023-04-06T05:21:19;77846.41;;;27.44;30.07
20955;BME280;10636;19.390;-99.256;2023-04-06T05:23:48;77849.72;;;27.42;29.67
20955;BME280;10636;19.390;-99.256;2023-04-06T05:26:16;77846.28;;;27.40;29.81
20955;BME280;10636;19.390;-99.256;2023-04-06T05:28:45;77819.47;;;27.20;29.79
20955;BME280;10636;19.390;-99.256;2023-04-06T05:31:13;77842.16;;;27.36;29.81
20955;BME280;10636;19.390;-99.256;2023-04-06T05:33:42;77844.78;;;27.34;29.98
20955;BME280;10636;19.390;-99.256;2023-04-06T05:36:13;77847.50;;;27.34;30.14
20955;BME280;10636;19.390;-99.256;2023-04-06T05:38:41;77821.31;;;27.13;30.18
20955;BME280;10636;19.390;-99.256;2023-04-06T05:41:10;77846.16;;;27.35;30.04
20955;BME280;10636;19.390;-99.256;2023-04-06T05:43:39;77840.72;;;27.33;29.88
20955;BME280;10636;19.390;-99.256;2023-04-06T05:46:07;77840.72;;;27.33;30.10
20955;BME280;10636;19.390;-99.256;2023-04-06T05:48:36;77843.38;;;27.31;30.34
20955;BME280;10636;19.390;-99.256;2023-04-06T05:51:04;77842.06;;;27.32;30.31
20955;BME280;10636;19.390;-99.256;2023-04-06T05:53:35;77843.38;;;27.31;30.59
20955;BME280;10636;19.390;-99.256;2023-04-06T05:56:05;77841.25;;;27.28;30.42
20955;BME280;10636;19.390;-99.256;2023-04-06T05:58:34;77837.91;;;27.29;30.60
20955;BME280;10636;19.390;-99.256;2023-04-06T06:01:03;77838.59;;;27.30;30.48
20955;BME280;10636;19.390;-99.256;2023-04-06T06:03:31;77831.16;;;27.28;30.63
20955;BME280;10636;19.390;-99.256;2023-04-06T06:06:00;77827.03;;;27.25;30.22
20955;BME280;10636;19.390;-99.256;2023-04-06T06:08:29;77817.41;;;27.18;30.54
20955;BME280;10636;19.390;-99.256;2023-04-06T06:10:59;77836.44;;;27.24;30.71
20955;BME280;10636;19.390;-99.256;2023-04-06T06:13:28;77826.97;;;27.23;30.58
20955;BME280;10636;19.390;-99.256;2023-04-06T06:15:56;77824.91;;;27.22;30.44
20955;BME280;10636;19.390;-99.256;2023-04-06T06:18:25;77819.41;;;27.18;30.48
20955;BME280;10636;19.390;-99.256;2023-04-06T06:20:53;77825.50;;;27.18;30.63
20955;BME280;10636;19.390;-99.256;2023-04-06T06:23:22;77832.19;;;27.17;30.72
20955;BME280;10636;19.390;-99.256;2023-04-06T06:25:50;77825.50;;;27.18;30.91
20955;BME280;10636;19.390;-99.256;2023-04-06T06:28:21;77826.84;;;27.19;30.86
20955;BME280;10636;19.390;-99.256;2023-04-06T06:30:53;77817.41;;;27.18;30.66
20955;BME280;10636;19.390;-99.256;2023-04-06T06:33:22;77821.44;;;27.17;30.53
20955;BME280;10636;19.390;-99.256;2023-04-06T06:35:52;77821.34;;;27.15;30.74
20955;BME280;10636;19.390;-99.256;2023-04-06T06:38:21;77814.59;;;27.14;30.67
20955;BME280;10636;19.390;-99.256;2023-04-06T06:40:49;77814.59;;;27.14;30.53
20955;BME280;10636;19.390;-99.256;2023-04-06T06:43:20;77806.53;;;27.14;30.68
20955;BME280;10636;19.390;-99.256;2023-04-06T06:45:48;77815.91;;;27.13;30.89
20955;BME280;10636;19.390;-99.256;2023-04-06T06:48:17;77807.78;;;27.11;31.03
20955;BME280;10636;19.390;-99.256;2023-04-06T06:50:47;77805.78;;;27.12;30.86
20955;BME280;10636;19.390;-99.256;2023-04-06T06:53:16;77800.41;;;27.12;30.82
20955;BME280;10636;19.390;-99.256;2023-04-06T06:55:44;77805.09;;;27.11;30.84
20955;BME280;10636;19.390;-99.256;2023-04-06T06:58:15;77801.03;;;27.10;30.97
20955;BME280;10636;19.390;-99.256;2023-04-06T07:00:45;77801.03;;;27.10;31.00
20955;BME280;10636;19.390;-99.256;2023-04-06T07:03:14;77784.06;;;27.05;30.92
20955;BME280;10636;19.390;-99.256;2023-04-06T07:05:46;77794.25;;;27.09;31.28
20955;BME280;10636;19.390;-99.256;2023-04-06T07:08:19;77788.88;;;27.09;30.96
20955;BME280;10636;19.390;-99.256;2023-04-06T07:10:48;77762.63;;;26.85;31.04
20955;BME280;10636;19.390;-99.256;2023-04-06T07:13:17;77788.69;;;27.03;31.26
20955;BME280;10636;19.390;-99.256;2023-04-06T07:15:51;77785.31;;;27.02;31.08
20955;BME280;10636;19.390;-99.256;2023-04-06T07:18:20;77790.69;;;27.02;31.01
20955;BME280;10636;19.390;-99.256;2023-04-06T07:20:49;77795.41;;;27.02;31.45
20955;BME280;10636;19.390;-99.256;2023-04-06T07:23:17;77789.31;;;27.01;31.08
20955;BME280;10636;19.390;-99.256;2023-04-06T07:25:46;77785.94;;;27.01;31.39
20955;BME280;10636;19.390;-99.256;2023-04-06T07:28:17;77788.63;;;27.01;31.45
20955;BME280;10636;19.390;-99.256;2023-04-06T07:30:47;77790.00;;;27.02;31.37
20955;BME280;10636;19.390;-99.256;2023-04-06T07:33:17;77784.50;;;26.98;31.51
20955;BME280;10636;19.390;-99.256;2023-04-06T07:35:46;77783.19;;;26.99;31.30
20955;BME280;10636;19.390;-99.256;2023-04-06T07:38:14;77788.53;;;26.97;31.30
20955;BME280;10636;19.390;-99.256;2023-04-06T07:40:43;77783.09;;;26.95;31.56
20955;BME280;10636;19.390;-99.256;2023-04-06T07:43:11;77775.69;;;26.95;31.55
20955;BME280;10636;19.390;-99.256;2023-04-06T07:45:40;77778.31;;;26.93;31.75
20955;BME280;10636;19.390;-99.256;2023-04-06T07:48:08;77778.31;;;26.93;31.73
20955;BME280;10636;19.390;-99.256;2023-04-06T07:50:38;77774.94;;;26.93;31.65
20955;BME280;10636;19.390;-99.256;2023-04-06T07:53:07;77777.63;;;26.93;31.91
20955;BME280;10636;19.390;-99.256;2023-04-06T07:55:36;77768.16;;;26.90;31.94
20955;BME280;10636;19.390;-99.256;2023-04-06T07:58:05;77760.00;;;26.88;32.06
20955;BME280;10636;19.390;-99.256;2023-04-06T08:00:33;77761.38;;;26.89;32.09
20955;BME280;10636;19.390;-99.256;2023-04-06T08:03:02;77762.75;;;26.90;32.13
20955;BME280;10636;19.390;-99.256;2023-04-06T08:05:30;77769.44;;;26.89;32.23
20955;BME280;10636;19.390;-99.256;2023-04-06T08:08:00;77770.06;;;26.87;31.98
20955;BME280;10636;19.390;-99.256;2023-04-06T08:10:29;77727.53;;;26.57;32.12
20955;BME280;10636;19.390;-99.256;2023-04-06T08:12:57;77744.66;;;26.68;32.43
20955;BME280;10636;19.390;-99.256;2023-04-06T08:15:26;77766.66;;;26.84;32.23
20955;BME280;10636;19.390;-99.256;2023-04-06T08:17:54;77778.66;;;26.81;32.50
20955;BME280;10636;19.390;-99.256;2023-04-06T08:20:23;77767.84;;;26.79;32.51
20955;BME280;10636;19.390;-99.256;2023-04-06T08:22:52;77770.47;;;26.77;32.53
20955;BME280;10636;19.390;-99.256;2023-04-06T08:25:22;77772.47;;;26.77;32.49
20955;BME280;10636;19.390;-99.256;2023-04-06T08:27:50;77771.78;;;26.76;32.69
20955;BME280;10636;19.390;-99.256;2023-04-06T08:30:22;77773.84;;;26.78;32.65
20955;BME280;10636;19.390;-99.256;2023-04-06T08:32:50;77773.16;;;26.77;32.62
20955;BME280;10636;19.390;-99.256;2023-04-06T08:35:21;77761.50;;;26.69;32.64
20955;BME280;10636;19.390;-99.256;2023-04-06T08:37:50;77767.78;;;26.77;32.59
20955;BME280;10636;19.390;-99.256;2023-04-06T08:40:18;77775.84;;;26.77;32.79
20955;BME280;10636;19.390;-99.256;2023-04-06T08:42:51;77777.84;;;26.77;32.79
20955;BME280;10636;19.390;-99.256;2023-04-06T08:45:20;77778.53;;;26.77;32.71
20955;BME280;10636;19.390;-99.256;2023-04-06T08:47:50;77777.16;;;26.76;32.67
20955;BME280;10636;19.390;-99.256;2023-04-06T08:50:19;77777.16;;;26.76;32.44
20955;BME280;10636;19.390;-99.256;2023-04-06T08:52:49;77783.78;;;26.73;32.55
20955;BME280;10636;19.390;-99.256;2023-04-06T08:55:17;77777.03;;;26.72;32.63
20955;BME280;10636;19.390;-99.256;2023-04-06T08:57:49;77777.03;;;26.72;32.85
20955;BME280;10636;19.390;-99.256;2023-04-06T09:00:20;77770.97;;;26.72;32.92
20955;BME280;10636;19.390;-99.256;2023-04-06T09:02:50;77782.31;;;26.68;33.10
20955;BME280;10636;19.390;-99.256;2023-04-06T09:05:20;77783.69;;;26.69;33.09
20955;BME280;10636;19.390;-99.256;2023-04-06T09:07:49;77777.63;;;26.69;33.09
20955;BME280;10636;19.390;-99.256;2023-04-06T09:10:18;77772.25;;;26.69;32.92
20955;BME280;10636;19.390;-99.256;2023-04-06T09:12:47;77775.69;;;26.71;33.11
20955;BME280;10636;19.390;-99.256;2023-04-06T09:15:21;77774.31;;;26.70;33.49
20955;BME280;10636;19.390;-99.256;2023-04-06T09:17:51;77781.69;;;26.70;33.10
20955;BME280;10636;19.390;-99.256;2023-04-06T09:20:23;77773.50;;;26.66;32.81
20955;BME280;10636;19.390;-99.256;2023-04-06T09:22:54;77781.63;;;26.68;33.17
20955;BME280;10636;19.390;-99.256;2023-04-06T09:25:24;77778.19;;;26.65;33.14
20955;BME280;10636;19.390;-99.256;2023-04-06T09:28:03;77780.84;;;26.63;33.09
20955;BME280;10636;19.390;-99.256;2023-04-06T09:30:34;77782.19;;;26.64;33.18
20955;BME280;10636;19.390;-99.256;2023-04-06T09:33:04;77769.81;;;26.55;33.02
20955;BME280;10636;19.390;-99.256;2023-04-06T09:35:33;77787.59;;;26.64;33.17
20955;BME280;10636;19.390;-99.256;2023-04-06T09:38:11;77789.50;;;26.62;33.37
20955;BME280;10636;19.390;-99.256;2023-04-06T09:40:49;77790.16;;;26.60;33.46
20955;BME280;10636;19.390;-99.256;2023-04-06T09:43:24;77791.38;;;26.57;33.45
20955;BME280;10636;19.390;-99.256;2023-04-06T09:45:55;77792.72;;;26.56;33.21
20955;BME280;10636;19.390;-99.256;2023-04-06T09:48:25;77798.03;;;26.54;33.24
20955;BME280;10636;19.390;-99.256;2023-04-06T09:50:59;77795.97;;;26.52;33.57
20955;BME280;10636;19.390;-99.256;2023-04-06T09:53:35;77795.97;;;26.52;32.87
20955;BME280;10636;19.390;-99.256;2023-04-06T09:56:11;77804.66;;;26.51;33.44
20955;BME280;10636;19.390;-99.256;2023-04-06T09:58:43;77799.28;;;26.51;33.22
20955;BME280;10636;19.390;-99.256;2023-04-06T10:01:16;77798.53;;;26.48;33.44
20955;BME280;10636;19.390;-99.256;2023-04-06T10:03:54;77798.53;;;26.48;33.33
20955;BME280;10636;19.390;-99.256;2023-04-06T10:06:27;77807.22;;;26.47;33.46
20955;BME280;10636;19.390;-99.256;2023-04-06T10:08:59;77807.16;;;26.45;33.46
20955;BME280;10636;19.390;-99.256;2023-04-06T10:11:30;77809.13;;;26.42;33.60
20955;BME280;10636;19.390;-99.256;2023-04-06T10:13:59;77808.41;;;26.42;33.66
20955;BME280;10636;19.390;-99.256;2023-04-06T10:16:29;77807.66;;;26.39;33.95
20955;BME280;10636;19.390;-99.256;2023-04-06T10:19:05;77813.06;;;26.41;33.71
20955;BME280;10636;19.390;-99.256;2023-04-06T10:21:36;77825.16;;;26.40;33.63
20955;BME280;10636;19.390;-99.256;2023-04-06T10:24:08;77827.16;;;26.40;33.71
20955;BME280;10636;19.390;-99.256;2023-04-06T10:26:38;77824.41;;;26.38;33.97
20955;BME280;10636;19.390;-99.256;2023-04-06T10:29:07;77817.59;;;26.34;34.10
20955;BME280;10636;19.390;-99.256;2023-04-06T10:31:42;77824.34;;;26.36;34.09
20955;BME280;10636;19.390;-99.256;2023-04-06T10:34:11;77825.72;;;26.37;33.86
20955;BME280;10636;19.390;-99.256;2023-04-06T10:36:40;77827.69;;;26.36;34.09
20955;BME280;10636;19.390;-99.256;2023-04-06T10:39:09;77833.03;;;26.34;34.19
20955;BME280;10636;19.390;-99.256;2023-04-06T10:41:44;77834.97;;;26.31;34.44
20955;BME280;10636;19.390;-99.256;2023-04-06T10:44:20;77833.59;;;26.30;34.79
20955;BME280;10636;19.390;-99.256;2023-04-06T10:46:57;77834.97;;;26.31;34.66
20955;BME280;10636;19.390;-99.256;2023-04-06T10:49:28;77828.19;;;26.30;34.40
20955;BME280;10636;19.390;-99.256;2023-04-06T10:51:57;77829.47;;;26.27;34.42
20955;BME280;10636;19.390;-99.256;2023-04-06T10:54:27;77837.53;;;26.27;34.51
20955;BME280;10636;19.390;-99.256;2023-04-06T10:56:56;77826.69;;;26.25;34.64
20955;BME280;10636;19.390;-99.256;2023-04-06T10:59:24;77838.84;;;26.26;34.55
20955;BME280;10636;19.390;-99.256;2023-04-06T11:01:53;77840.81;;;26.26;34.70
20955;BME280;10636;19.390;-99.256;2023-04-06T11:04:24;77842.84;;;26.25;34.55
20955;BME280;10636;19.390;-99.256;2023-04-06T11:06:53;77842.16;;;26.25;34.63
20955;BME280;10636;19.390;-99.256;2023-04-06T11:09:25;77843.41;;;26.22;35.04
20955;BME280;10636;19.390;-99.256;2023-04-06T11:11:54;77849.47;;;26.22;34.88
20955;BME280;10636;19.390;-99.256;2023-04-06T11:14:23;77835.72;;;26.12;34.63
20955;BME280;10636;19.390;-99.256;2023-04-06T11:16:52;77838.72;;;26.22;34.56
20955;BME280;10636;19.390;-99.256;2023-04-06T11:19:21;77838.72;;;26.22;34.92
20955;BME280;10636;19.390;-99.256;2023-04-06T11:21:51;77808.22;;;25.94;35.03
20955;BME280;10636;19.390;-99.256;2023-04-06T11:24:21;77839.94;;;26.19;34.81
20955;BME280;10636;19.390;-99.256;2023-04-06T11:26:50;77843.31;;;26.20;34.85
20955;BME280;10636;19.390;-99.256;2023-04-06T11:29:20;77846.69;;;26.20;34.70
20955;BME280;10636;19.390;-99.256;2023-04-06T11:31:50;77845.31;;;26.19;34.59
20955;BME280;10636;19.390;-99.256;2023-04-06T11:34:20;77846.66;;;26.18;34.80
20955;BME280;10636;19.390;-99.256;2023-04-06T11:36:56;77835.84;;;26.16;34.86
20955;BME280;10636;19.390;-99.256;2023-04-06T11:39:26;77848.66;;;26.18;34.73
20955;BME280;10636;19.390;-99.256;2023-04-06T11:41:57;77799.16;;;25.83;34.90
20955;BME280;10636;19.390;-99.256;2023-04-06T11:44:33;77845.19;;;26.15;35.12
20955;BME280;10636;19.390;-99.256;2023-04-06T11:47:02;77851.16;;;26.12;34.92
20955;BME280;10636;19.390;-99.256;2023-04-06T11:49:32;77848.47;;;26.12;34.87
20955;BME280;10636;19.390;-99.256;2023-04-06T11:52:02;77854.50;;;26.12;34.65
20955;BME280;10636;19.390;-99.256;2023-04-06T11:54:32;77847.69;;;26.09;34.81
20955;BME280;10636;19.390;-99.256;2023-04-06T11:57:02;77861.22;;;26.11;34.68
20955;BME280;10636;19.390;-99.256;2023-04-06T11:59:31;77861.22;;;26.11;34.54
20955;BME280;10636;19.390;-99.256;2023-04-06T12:02:00;77861.22;;;26.11;34.69
20955;BME280;10636;19.390;-99.256;2023-04-06T12:04:29;77859.84;;;26.10;34.32
20955;BME280;10636;19.390;-99.256;2023-04-06T12:06:58;77861.75;;;26.07;34.41
20955;BME280;10636;19.390;-99.256;2023-04-06T12:09:28;77851.69;;;26.08;34.25
20955;BME280;10636;19.390;-99.256;2023-04-06T12:11:57;77861.06;;;26.07;34.20
20955;BME280;10636;19.390;-99.256;2023-04-06T12:14:25;77861.06;;;26.07;34.36
20955;BME280;10636;19.390;-99.256;2023-04-06T12:16:54;77859.69;;;26.06;34.29
20955;BME280;10636;19.390;-99.256;2023-04-06T12:19:22;77866.38;;;26.05;34.27
20955;BME280;10636;19.390;-99.256;2023-04-06T12:21:55;77865.69;;;26.04;34.42
20955;BME280;10636;19.390;-99.256;2023-04-06T12:24:25;77865.00;;;26.04;34.50
20955;BME280;10636;19.390;-99.256;2023-04-06T12:26:55;77864.31;;;26.03;34.39
20955;BME280;10636;19.390;-99.256;2023-04-06T12:29:24;77863.56;;;26.01;34.30
20955;BME280;10636;19.390;-99.256;2023-04-06T12:31:53;77864.13;;;25.97;34.42
20955;BME280;10636;19.390;-99.256;2023-04-06T12:34:21;77870.03;;;25.94;34.37
20955;BME280;10636;19.390;-99.256;2023-04-06T12:36:50;77867.22;;;25.90;34.58
20955;BME280;10636;19.390;-99.256;2023-04-06T12:39:19;77873.91;;;25.89;34.53
20955;BME280;10636;19.390;-99.256;2023-04-06T12:41:48;77873.91;;;25.89;34.24
20955;BME280;10636;19.390;-99.256;2023-04-06T12:44:19;77881.34;;;25.90;34.56
20955;BME280;10636;19.390;-99.256;2023-04-06T12:46:50;77886.03;;;25.90;34.15
20955;BME280;10636;19.390;-99.256;2023-04-06T12:49:19;77887.31;;;25.89;34.52
20955;BME280;10636;19.390;-99.256;2023-04-06T12:51:48;77896.66;;;25.86;34.51
20955;BME280;10636;19.390;-99.256;2023-04-06T12:54:16;77898.56;;;25.83;34.33